Time;durP1;ratioP1;P1;durP2;ratioP2;P2;SDS_P1;SDS_P2;PMS_P1;PMS_P2;Temp;Humidity;BMP_temperature;BMP_pressure;BME280_temperature;BME280_humidity;BME280_pressure;Samples;Min_cycle;Max_cycle;Signal;HPM_P1;HPM_P2
2021/01/21 00:02:23;;;;;;;10.03;7.00;;;;;;;4.36;89.07;98712.19;625683;226;24802;-80
2021/01/21 00:04:51;;;;;;;7.97;6.17;;;;;;;4.47;89.05;98719.72;620993;229;25040;-79
2021/01/21 00:07:19;;;;;;;9.48;7.20;;;;;;;4.74;88.09;98715.84;635729;223;32844;-80
2021/01/21 00:09:47;;;;;;;9.47;6.47;;;;;;;4.56;88.73;98711.15;640947;224;23937;-79
2021/01/21 00:12:15;;;;;;;10.50;6.70;;;;;;;4.42;88.87;98716.30;643701;219;24796;-80
2021/01/21 00:14:43;;;;;;;9.10;6.70;;;;;;;4.56;88.74;98715.02;639913;224;24838;-80
2021/01/21 00:17:11;;;;;;;10.50;6.40;;;;;;;4.53;88.58;98705.48;626804;228;24839;-80
2021/01/21 00:19:39;;;;;;;9.17;5.90;;;;;;;4.60;88.60;98712.95;619653;229;24898;-80
2021/01/21 00:22:07;;;;;;;8.20;6.13;;;;;;;4.62;87.78;98699.45;637831;219;28992;-80
2021/01/21 00:24:35;;;;;;;7.70;5.67;;;;;;;4.80;87.99;98699.50;627203;228;24848;-80
2021/01/21 00:27:03;;;;;;;7.63;5.23;;;;;;;4.72;88.03;98692.01;637796;225;24749;-79
2021/01/21 00:29:31;;;;;;;7.83;5.67;;;;;;;4.73;87.90;98698.78;637331;225;24791;-80
2021/01/21 00:32:00;;;;;;;9.08;5.80;;;;;;;5.09;86.67;98697.52;633084;221;32732;-79
2021/01/21 00:34:28;;;;;;;7.97;6.00;;;;;;;4.76;87.59;98702.34;627086;229;23692;-79
2021/01/21 00:36:56;;;;;;;9.47;5.30;;;;;;;4.88;87.41;98696.51;641463;223;31122;-79
2021/01/21 00:39:24;;;;;;;10.17;5.70;;;;;;;5.02;87.03;98692.61;639585;224;24893;-79
2021/01/21 00:41:52;;;;;;;8.28;5.67;;;;;;;5.40;85.08;98673.92;634012;221;32515;-79
2021/01/21 00:44:20;;;;;;;8.63;5.33;;;;;;;5.16;85.83;98668.90;629446;228;23711;-77
2021/01/21 00:46:48;;;;;;;7.53;5.97;;;;;;;5.16;86.11;98666.32;642474;223;24806;-79
2021/01/21 00:49:15;;;;;;;7.00;5.33;;;;;;;5.20;85.88;98657.33;639016;224;24911;-79
2021/01/21 00:51:43;;;;;;;9.93;5.17;;;;;;;5.16;85.90;98653.92;633638;224;24829;-80
2021/01/21 00:54:11;;;;;;;8.13;5.43;;;;;;;5.01;86.43;98655.73;635395;225;24846;-80
2021/01/21 00:56:41;;;;;;;6.70;5.20;;;;;;;5.02;86.19;98652.20;632188;225;24908;-79
2021/01/21 00:59:07;;;;;;;5.93;4.70;;;;;;;5.11;86.46;98665.97;633595;225;24923;-79
2021/01/21 01:01:35;;;;;;;8.17;5.03;;;;;;;5.10;85.75;98639.06;635186;222;24829;-80
2021/01/21 01:04:03;;;;;;;8.57;4.93;;;;;;;5.15;85.59;98651.82;622280;230;25047;-80
2021/01/21 01:06:31;;;;;;;7.63;4.90;;;;;;;5.22;84.66;98637.39;620654;229;26053;-80
2021/01/21 01:08:59;;;;;;;8.03;4.95;;;;;;;5.43;84.04;98653.80;630049;225;33074;-79
2021/01/21 01:11:27;;;;;;;8.65;5.20;;;;;;;5.58;82.95;98639.39;630848;224;32839;-79
2021/01/21 01:13:55;;;;;;;9.50;5.20;;;;;;;5.38;83.89;98634.59;635719;225;23656;-79
2021/01/21 01:16:23;;;;;;;7.20;4.60;;;;;;;5.10;84.34;98647.60;636534;223;24758;-80
2021/01/21 01:18:51;;;;;;;7.67;4.97;;;;;;;5.32;84.02;98636.80;623109;229;25039;-80
2021/01/21 01:21:19;;;;;;;5.30;4.53;;;;;;;5.42;83.49;98636.71;639531;223;24849;-80
2021/01/21 01:23:47;;;;;;;6.90;4.75;;;;;;;5.61;83.09;98630.05;620748;229;32684;-80
2021/01/21 01:26:17;;;;;;;8.20;4.90;;;;;;;5.56;82.62;98628.42;629628;228;23710;-81
2021/01/21 01:28:45;;;;;;;6.43;4.60;;;;;;;5.33;83.83;98628.59;639388;224;29233;-80
2021/01/21 01:31:13;;;;;;;7.63;4.13;;;;;;;5.58;83.15;98629.55;625437;226;24793;-80
2021/01/21 01:33:41;;;;;;;9.38;4.62;;;;;;;5.79;81.90;98624.04;622845;228;32824;-80
2021/01/21 01:36:09;;;;;;;7.30;4.63;;;;;;;5.68;82.53;98619.95;626245;229;23691;-80
2021/01/21 01:38:37;;;;;;;5.13;3.90;;;;;;;5.60;82.53;98621.18;639575;225;24764;-80
2021/01/21 01:41:05;;;;;;;5.13;4.13;;;;;;;5.63;82.14;98620.42;638812;222;27898;-81
2021/01/21 01:43:33;;;;;;;7.57;4.50;;;;;;;5.48;82.85;98615.47;625335;230;27029;-80
2021/01/21 01:46:01;;;;;;;6.33;3.90;;;;;;;5.54;82.31;98613.59;638413;225;24750;-80
2021/01/21 01:48:29;;;;;;;6.43;4.47;;;;;;;5.66;82.69;98612.85;627992;228;24784;-79
2021/01/21 01:50:58;;;;;;;4.90;4.07;;;;;;;5.57;82.13;98612.47;640588;223;25081;-80
2021/01/21 01:53:28;;;;;;;7.55;4.30;;;;;;;6.04;80.74;98608.19;633258;224;32876;-80
2021/01/21 01:55:56;;;;;;;7.20;3.57;;;;;;;5.64;81.93;98597.53;639127;224;23715;-79
2021/01/21 01:58:24;;;;;;;4.50;3.40;;;;;;;5.55;80.88;98596.34;639685;224;24918;-80
2021/01/21 02:00:53;;;;;;;5.47;3.70;;;;;;;6.01;79.45;98594.31;634520;224;32921;-80
2021/01/21 02:03:21;;;;;;;9.55;3.70;;;;;;;6.29;78.70;98573.75;636631;220;33181;-80
2021/01/21 02:05:52;;;;;;;4.37;3.43;;;;;;;5.93;79.80;98575.28;638743;224;23671;-81
2021/01/21 02:08:20;;;;;;;4.60;3.50;;;;;;;5.86;79.28;98579.40;641237;223;24852;-80
2021/01/21 02:10:48;;;;;;;6.23;3.67;;;;;;;5.98;79.72;98578.67;625819;229;24830;-78
2021/01/21 02:13:27;;;;;;;4.87;3.57;;;;;;;6.16;78.34;98566.94;626135;226;24782;-79
2021/01/21 02:15:58;;;;;;;5.40;3.80;;;;;;;6.06;79.68;98570.16;639224;223;24856;-81
2021/01/21 02:18:27;;;;;;;6.10;4.30;;;;;;;5.99;79.34;98563.99;638952;225;24764;-80
2021/01/21 02:21:14;;;;;;;5.23;3.37;;;;;;;5.97;79.53;98571.09;619795;228;24852;-81
2021/01/21 02:24:22;;;;;;;5.40;4.10;;;;;;;5.99;79.67;98567.86;618899;229;24862;-81
2021/01/21 02:26:51;;;;;;;5.67;3.87;;;;;;;5.97;79.61;98554.31;632000;227;25071;-80
2021/01/21 02:29:21;;;;;;;6.47;4.07;;;;;;;5.95;79.57;98562.22;640772;222;24747;-82
2021/01/21 02:31:56;;;;;;;6.03;3.60;;;;;;;5.99;78.82;98557.55;639669;223;24811;-83
2021/01/21 02:34:24;;;;;;;5.93;4.17;;;;;;;5.99;79.00;98553.19;626196;229;24802;-80
2021/01/21 02:36:53;;;;;;;6.20;4.17;;;;;;;5.99;78.65;98545.93;629239;228;24842;-80
2021/01/21 02:39:21;;;;;;;4.40;3.23;;;;;;;5.96;79.03;98544.48;626608;229;24768;-80
2021/01/21 02:41:52;;;;;;;4.20;3.40;;;;;;;5.88;79.23;98542.64;627439;228;24823;-80
2021/01/21 02:44:20;;;;;;;9.83;4.70;;;;;;;5.94;79.21;98543.34;624321;229;24930;-80
2021/01/21 02:46:49;;;;;;;6.00;2.90;;;;;;;5.86;79.10;98536.83;626365;229;24809;-80
2021/01/21 02:49:17;;;;;;;5.95;2.98;;;;;;;6.14;78.63;98536.13;620302;229;32720;-80
2021/01/21 02:51:48;;;;;;;6.30;2.87;;;;;;;6.03;78.69;98536.91;627489;225;26848;-80
2021/01/21 02:54:31;;;;;;;5.23;2.93;;;;;;;6.03;78.09;98536.42;627176;229;24832;-79
2021/01/21 02:56:59;;;;;;;3.03;2.70;;;;;;;6.14;77.62;98526.29;626990;228;24847;-79
2021/01/21 02:59:27;;;;;;;3.57;2.90;;;;;;;6.09;78.37;98529.84;628114;228;24826;-80
2021/01/21 03:01:55;;;;;;;4.30;3.03;;;;;;;6.17;77.74;98521.61;626437;226;24996;-80
2021/01/21 03:04:23;;;;;;;4.70;3.20;;;;;;;5.89;78.80;98536.51;640758;223;24793;-80
2021/01/21 03:06:51;;;;;;;6.60;3.57;;;;;;;5.91;78.50;98543.67;638529;224;24853;-80
2021/01/21 03:09:19;;;;;;;3.80;3.00;;;;;;;6.30;76.67;98539.22;632390;225;32641;-80
2021/01/21 03:11:47;;;;;;;4.65;2.90;;;;;;;6.44;75.65;98532.13;619535;226;32734;-80
2021/01/21 03:14:15;;;;;;;6.03;2.83;;;;;;;6.09;76.37;98538.39;638475;225;23674;-78
2021/01/21 03:16:43;;;;;;;3.20;2.63;;;;;;;6.11;77.21;98540.33;638432;225;24756;-78
2021/01/21 03:19:11;;;;;;;4.67;3.13;;;;;;;6.08;77.49;98535.97;638535;225;24752;-78
2021/01/21 03:21:39;;;;;;;4.10;2.90;;;;;;;6.05;76.71;98537.06;628139;224;24853;-80
2021/01/21 03:24:08;;;;;;;3.80;2.67;;;;;;;6.13;76.78;98528.06;635396;224;24812;-79
2021/01/21 03:26:36;;;;;;;4.00;2.60;;;;;;;6.05;77.55;98520.77;641204;224;24820;-80
2021/01/21 03:29:04;;;;;;;4.42;2.80;;;;;;;6.26;76.46;98526.31;637670;224;32681;-80
2021/01/21 03:31:32;;;;;;;3.83;3.10;;;;;;;6.07;76.56;98515.00;635026;225;23718;-79
2021/01/21 03:34:00;;;;;;;3.20;2.77;;;;;;;5.90;77.64;98523.97;636798;225;24838;-80
2021/01/21 03:36:28;;;;;;;3.00;2.20;;;;;;;5.99;76.28;98513.68;634938;225;24834;-79
2021/01/21 03:38:56;;;;;;;2.90;2.37;;;;;;;6.02;76.98;98519.80;637690;225;24906;-77
2021/01/21 03:41:25;;;;;;;2.53;2.33;;;;;;;6.18;75.84;98513.38;639317;223;25013;-80
2021/01/21 03:43:53;;;;;;;3.63;2.47;;;;;;;6.03;75.80;98513.68;638752;223;24916;-80
2021/01/21 03:46:21;;;;;;;6.03;2.73;;;;;;;6.20;75.62;98511.47;638437;224;24803;-80
2021/01/21 03:48:48;;;;;;;3.57;2.30;;;;;;;6.29;75.75;98499.37;625563;229;24828;-80
2021/01/21 03:51:16;;;;;;;3.30;2.13;;;;;;;6.32;74.89;98504.20;624437;228;24881;-79
2021/01/21 03:53:44;;;;;;;2.00;1.90;;;;;;;6.36;75.63;98507.61;641124;223;24910;-78
2021/01/21 03:56:12;;;;;;;4.83;2.50;;;;;;;6.44;75.46;98504.21;641452;224;24795;-80
2021/01/21 03:58:40;;;;;;;4.07;2.83;;;;;;;6.55;74.92;98518.91;626878;229;24874;-79
2021/01/21 04:01:08;;;;;;;4.60;2.77;;;;;;;6.50;74.16;98521.66;638192;222;24786;-80
2021/01/21 04:03:36;;;;;;;5.53;2.90;;;;;;;6.48;73.89;98514.56;625662;229;25256;-79
2021/01/21 04:06:05;;;;;;;6.13;3.40;;;;;;;6.54;74.63;98508.74;626027;227;24841;-80
2021/01/21 04:08:32;;;;;;;5.33;2.60;;;;;;;6.68;73.66;98513.26;627707;228;24871;-80
2021/01/21 04:11:00;;;;;;;4.73;2.73;;;;;;;6.56;73.76;98505.51;637159;224;25963;-77
2021/01/21 04:13:28;;;;;;;2.77;2.20;;;;;;;6.46;75.01;98500.98;639643;224;24791;-78
2021/01/21 04:15:56;;;;;;;3.20;2.40;;;;;;;6.47;74.44;98511.14;623824;229;24876;-80
2021/01/21 04:18:24;;;;;;;3.10;2.05;;;;;;;6.90;73.66;98507.09;621429;226;43569;-78
2021/01/21 04:20:52;;;;;;;2.80;2.03;;;;;;;6.49;75.01;98500.20;625619;229;23732;-78
2021/01/21 04:23:20;;;;;;;4.60;1.90;;;;;;;6.95;72.89;98506.94;632074;222;32573;-78
2021/01/21 04:25:48;;;;;;;3.62;2.00;;;;;;;6.89;72.97;98508.06;632562;225;33017;-78
2021/01/21 04:28:16;;;;;;;3.50;2.33;;;;;;;6.59;74.14;98514.70;626340;229;23680;-78
2021/01/21 04:30:44;;;;;;;3.47;2.20;;;;;;;7.07;72.91;98514.67;616463;229;33090;-78
2021/01/21 04:33:12;;;;;;;3.27;1.90;;;;;;;7.26;72.57;98518.66;620675;225;32810;-79
2021/01/21 04:35:40;;;;;;;10.30;2.60;;;;;;;6.95;72.68;98516.47;638892;223;23697;-79
2021/01/21 04:38:08;;;;;;;4.13;2.37;;;;;;;6.81;72.34;98519.23;639416;224;24777;-80
2021/01/21 04:40:36;;;;;;;3.37;2.47;;;;;;;6.81;73.59;98515.35;638952;224;24819;-79
2021/01/21 04:43:04;;;;;;;37.20;20.23;;;;;;;6.84;73.42;98527.94;642436;220;24764;-78
2021/01/21 04:45:32;;;;;;;10.07;5.03;;;;;;;6.74;72.64;98523.41;624908;228;24890;-78
2021/01/21 04:48:00;;;;;;;3.80;2.60;;;;;;;6.87;72.77;98526.31;637751;225;24789;-78
2021/01/21 04:50:28;;;;;;;4.63;3.17;;;;;;;6.86;72.44;98526.00;636978;225;24839;-79
2021/01/21 04:52:56;;;;;;;3.47;2.57;;;;;;;7.05;72.76;98518.39;636192;220;24841;-78
2021/01/21 04:55:24;;;;;;;2.67;2.23;;;;;;;6.98;72.60;98518.72;640266;224;24770;-78
2021/01/21 04:57:53;;;;;;;2.13;1.90;;;;;;;7.12;72.25;98521.44;637892;224;25417;-79
2021/01/21 05:00:22;;;;;;;3.40;1.97;;;;;;;7.08;73.52;98530.98;639506;224;24824;-79
2021/01/21 05:02:49;;;;;;;3.27;2.97;;;;;;;6.97;73.95;98528.25;626821;225;24791;-78
2021/01/21 05:05:17;;;;;;;2.80;1.83;;;;;;;7.11;73.52;98522.89;629251;228;24845;-78
2021/01/21 05:07:45;;;;;;;2.10;1.60;;;;;;;6.95;73.42;98513.39;638063;223;24999;-78
2021/01/21 05:10:13;;;;;;;4.80;1.90;;;;;;;7.23;72.58;98522.87;627306;229;24799;-83
2021/01/21 05:12:41;;;;;;;4.83;1.60;;;;;;;7.34;72.41;98516.55;626592;226;24797;-82
2021/01/21 05:15:10;;;;;;;3.27;1.60;;;;;;;7.68;71.03;98511.07;609630;229;32705;-80
2021/01/21 05:17:39;;;;;;;2.20;1.27;;;;;;;7.59;71.25;98497.35;640170;223;23838;-84
2021/01/21 05:20:08;;;;;;;1.20;1.13;;;;;;;7.85;69.94;98494.48;635688;224;24838;-82
2021/01/21 05:22:36;;;;;;;1.93;1.10;;;;;;;7.97;69.49;98484.06;640422;224;25129;-81
2021/01/21 05:25:07;;;;;;;1.30;1.23;;;;;;;8.04;69.46;98485.49;625973;229;24797;-81
2021/01/21 05:27:35;;;;;;;1.23;1.13;;;;;;;8.26;68.11;98480.80;625629;229;24794;-81
2021/01/21 05:30:05;;;;;;;3.13;1.23;;;;;;;8.37;68.66;98478.81;628019;228;25073;-81
2021/01/21 05:32:39;;;;;;;2.27;1.30;;;;;;;8.49;67.68;98478.72;626616;228;25926;-83
2021/01/21 05:35:08;;;;;;;1.10;1.00;;;;;;;8.63;66.87;98467.59;626884;229;25151;-82
2021/01/21 05:37:39;;;;;;;2.17;1.10;;;;;;;8.77;66.79;98464.22;623639;230;24941;-80
2021/01/21 05:40:08;;;;;;;1.60;1.20;;;;;;;8.82;66.64;98450.22;621618;228;32824;-82
2021/01/21 05:42:37;;;;;;;3.80;2.37;;;;;;;8.79;66.92;98448.48;625601;226;23670;-81
2021/01/21 05:45:07;;;;;;;2.10;1.47;;;;;;;8.81;67.67;98445.22;622860;229;24831;-79
2021/01/21 05:47:34;;;;;;;1.40;1.23;;;;;;;8.91;66.20;98438.80;628743;228;24832;-78
2021/01/21 05:50:03;;;;;;;1.90;1.10;;;;;;;8.90;66.33;98441.08;636592;225;24747;-81
2021/01/21 05:52:31;;;;;;;1.43;1.30;;;;;;;9.02;66.05;98441.94;625759;225;24845;-79
2021/01/21 05:54:59;;;;;;;2.30;1.47;;;;;;;9.08;65.96;98423.05;629627;228;24864;-82
2021/01/21 05:57:27;;;;;;;1.17;0.90;;;;;;;9.18;65.75;98415.81;638371;223;24747;-82
2021/01/21 05:59:54;;;;;;;1.93;0.90;;;;;;;9.26;65.15;98393.64;622697;229;32787;-83
2021/01/21 06:02:22;;;;;;;2.00;1.00;;;;;;;9.26;64.81;98394.94;623308;225;24882;-81
2021/01/21 06:04:50;;;;;;;1.20;1.00;;;;;;;9.50;64.80;98401.12;635319;223;32671;-81
2021/01/21 06:07:22;;;;;;;1.10;1.00;;;;;;;9.44;64.53;98397.97;623157;228;33026;-79
2021/01/21 06:09:50;;;;;;;2.67;1.00;;;;;;;9.67;64.51;98402.19;622677;228;32804;-79
2021/01/21 06:12:27;;;;;;;3.00;1.10;;;;;;;9.60;64.12;98400.03;629230;224;23755;-79
2021/01/21 06:14:58;;;;;;;0.80;0.80;;;;;;;9.67;64.35;98393.10;623825;229;24873;-78
2021/01/21 06:17:33;;;;;;;1.50;1.00;;;;;;;9.66;64.20;98414.36;635342;224;43645;-80
2021/01/21 06:20:06;;;;;;;1.27;0.93;;;;;;;9.73;64.17;98400.97;641190;224;25845;-79
2021/01/21 06:22:34;;;;;;;1.13;1.00;;;;;;;9.66;64.77;98404.47;639215;220;24867;-82
2021/01/21 06:25:08;;;;;;;2.50;1.23;;;;;;;9.80;63.61;98390.64;642206;224;24809;-81
2021/01/21 06:27:36;;;;;;;4.40;0.90;;;;;;;9.79;64.53;98406.71;641313;224;24785;-82
2021/01/21 06:30:07;;;;;;;1.60;1.00;;;;;;;9.82;64.95;98399.84;640239;224;24814;-79
2021/01/21 06:32:35;;;;;;;0.90;0.80;;;;;;;9.99;63.89;98412.11;626980;228;24888;-78
2021/01/21 06:35:04;;;;;;;5.87;1.50;;;;;;;10.01;64.51;98410.13;625693;228;27056;-78
2021/01/21 06:37:33;;;;;;;1.10;1.00;;;;;;;10.01;64.41;98409.33;623026;229;24791;-78
2021/01/21 06:40:06;;;;;;;2.07;1.10;;;;;;;10.00;64.54;98404.62;626122;229;23813;-80
2021/01/21 06:42:37;;;;;;;1.27;0.87;;;;;;;10.06;65.25;98415.55;625857;228;24830;-79
2021/01/21 06:45:07;;;;;;;0.80;0.80;;;;;;;10.02;66.19;98409.14;633288;225;32353;-79
2021/01/21 06:47:35;;;;;;;1.17;0.80;;;;;;;9.95;66.88;98419.14;637718;225;24820;-80
2021/01/21 06:50:03;;;;;;;2.83;1.00;;;;;;;10.10;66.97;98425.88;624753;229;24895;-82
2021/01/21 06:52:31;;;;;;;2.17;0.90;;;;;;;10.12;67.30;98429.09;625979;226;26949;-83
2021/01/21 06:54:59;;;;;;;1.57;0.90;;;;;;;10.17;67.58;98438.14;624973;229;25862;-79
2021/01/21 06:57:37;;;;;;;1.45;0.90;;;;;;;10.28;67.90;98441.57;620185;229;32711;-80
2021/01/21 07:00:08;;;;;;;3.13;0.80;;;;;;;10.19;69.63;98443.95;624930;228;23703;-81
2021/01/21 07:02:44;;;;;;;1.07;0.70;;;;;;;10.26;69.68;98448.23;640864;219;25142;-80
2021/01/21 07:05:13;;;;;;;1.00;0.90;;;;;;;10.32;69.69;98449.29;617676;230;32830;-80
2021/01/21 07:07:59;;;;;;;1.63;0.73;;;;;;;10.28;70.16;98452.77;626652;228;23726;-80
2021/01/21 07:10:28;;;;;;;0.90;0.90;;;;;;;10.33;69.62;98453.49;635205;225;24818;-79
2021/01/21 07:12:56;;;;;;;0.80;0.80;;;;;;;10.39;68.39;98456.13;625119;226;24845;-79
2021/01/21 07:15:33;;;;;;;1.93;1.20;;;;;;;10.34;69.84;98453.80;626985;227;24837;-79
2021/01/21 07:18:02;;;;;;;0.97;0.80;;;;;;;10.35;69.98;98456.70;641540;222;23833;-79
2021/01/21 07:20:32;;;;;;;1.83;1.00;;;;;;;10.38;70.67;98462.83;626305;229;24790;-79
2021/01/21 07:23:04;;;;;;;1.63;1.37;;;;;;;10.42;70.77;98475.77;639936;220;24795;-80
2021/01/21 07:25:32;;;;;;;1.80;0.90;;;;;;;10.36;70.49;98471.30;637962;224;23777;-79
2021/01/21 07:28:10;;;;;;;1.10;0.90;;;;;;;10.42;70.54;98480.17;626211;228;29152;-79
2021/01/21 07:30:39;;;;;;;2.67;1.17;;;;;;;10.40;69.87;98472.53;638845;224;24814;-79
2021/01/21 07:33:21;;;;;;;2.60;0.90;;;;;;;10.51;69.58;98473.33;635955;225;24834;-81
2021/01/21 07:35:51;;;;;;;1.20;0.93;;;;;;;10.57;70.21;98475.20;640383;223;24843;-79
2021/01/21 07:38:29;;;;;;;1.17;0.90;;;;;;;10.81;69.35;98465.35;635072;225;23876;-81
2021/01/21 07:41:02;;;;;;;1.43;0.77;;;;;;;10.59;70.43;98465.91;637178;225;24837;-79
2021/01/21 07:43:55;;;;;;;1.20;0.70;;;;;;;10.62;70.08;98470.72;637411;225;27105;-81
2021/01/21 07:46:30;;;;;;;1.50;1.00;;;;;;;10.60;70.22;98464.41;638764;223;24858;-80
2021/01/21 07:49:22;;;;;;;0.90;0.60;;;;;;;10.77;70.65;98466.73;635478;223;32851;-80
2021/01/21 07:52:01;;;;;;;1.60;0.80;;;;;;;10.68;70.53;98459.06;635206;222;23653;-79
2021/01/21 07:54:29;;;;;;;0.83;0.80;;;;;;;10.67;71.44;98467.86;628401;228;24838;-80
2021/01/21 07:56:59;;;;;;;0.70;0.70;;;;;;;10.66;70.58;98466.75;641077;224;24768;-80
2021/01/21 07:59:28;;;;;;;2.47;0.60;;;;;;;10.73;71.18;98449.41;640128;224;27974;-83
2021/01/21 08:01:58;;;;;;;0.70;0.70;;;;;;;10.68;71.01;98466.05;642155;220;24798;-80
2021/01/21 08:04:26;;;;;;;0.70;0.70;;;;;;;10.60;71.76;98459.22;638615;224;24835;-82
2021/01/21 08:06:55;;;;;;;1.10;0.80;;;;;;;10.52;72.32;98459.34;638003;225;24742;-79
2021/01/21 08:09:23;;;;;;;3.53;0.90;;;;;;;10.51;71.55;98459.53;637400;225;24758;-82
2021/01/21 08:11:53;;;;;;;1.53;0.90;;;;;;;10.53;71.64;98458.34;625755;226;24900;-83
2021/01/21 08:14:21;;;;;;;1.37;0.80;;;;;;;10.52;72.22;98466.34;634441;225;24896;-80
2021/01/21 08:16:50;;;;;;;0.67;0.67;;;;;;;10.37;72.96;98466.41;635716;225;24746;-79
2021/01/21 08:19:22;;;;;;;1.57;0.97;;;;;;;10.37;73.05;98463.32;627102;225;24857;-80
2021/01/21 08:21:50;;;;;;;1.10;0.73;;;;;;;10.59;72.44;98463.31;622957;225;33137;-79
2021/01/21 08:24:18;;;;;;;0.90;0.80;;;;;;;10.68;72.63;98468.66;623217;223;43561;-79
2021/01/21 08:26:46;;;;;;;0.80;0.80;;;;;;;10.54;72.82;98463.85;639912;224;23749;-79
2021/01/21 08:29:15;;;;;;;0.93;0.80;;;;;;;10.67;73.23;98475.66;627634;228;24905;-84
2021/01/21 08:31:43;;;;;;;0.80;0.80;;;;;;;10.67;72.52;98477.45;629304;225;24867;-82
2021/01/21 08:34:11;;;;;;;1.22;0.70;;;;;;;10.83;72.37;98475.87;620531;229;32630;-80
2021/01/21 08:36:39;;;;;;;1.13;0.80;;;;;;;10.98;72.78;98462.28;637018;224;23724;-80
2021/01/21 08:39:07;;;;;;;9.20;0.80;;;;;;;11.09;72.81;98467.43;621600;229;24799;-79
2021/01/21 08:41:35;;;;;;;0.70;0.70;;;;;;;11.14;71.90;98454.67;626066;225;24801;-80
2021/01/21 08:44:05;;;;;;;1.80;0.70;;;;;;;11.33;71.71;98460.96;613798;229;32957;-79
2021/01/21 08:46:33;;;;;;;1.50;0.80;;;;;;;11.19;71.94;98477.50;619083;229;32650;-79
2021/01/21 08:49:09;;;;;;;1.07;0.60;;;;;;;11.19;72.59;98489.21;640712;223;23664;-81
2021/01/21 08:51:45;;;;;;;1.00;0.77;;;;;;;11.31;72.80;98494.19;640443;220;24779;-80
2021/01/21 08:54:15;;;;;;;0.70;0.70;;;;;;;11.45;72.89;98488.55;639204;224;24759;-80
2021/01/21 08:56:43;;;;;;;1.17;0.90;;;;;;;11.59;72.11;98495.42;639448;224;24758;-79
2021/01/21 08:59:22;;;;;;;0.90;0.70;;;;;;;11.60;71.94;98490.52;638308;224;24830;-81
2021/01/21 09:01:53;;;;;;;0.90;0.70;;;;;;;11.67;73.58;98503.55;640877;220;24789;-81
2021/01/21 09:04:24;;;;;;;0.90;0.70;;;;;;;11.67;72.76;98508.26;641432;223;27959;-80
2021/01/21 09:06:58;;;;;;;0.63;0.63;;;;;;;11.74;72.67;98511.71;640189;224;24824;-80
2021/01/21 09:09:27;;;;;;;2.03;0.70;;;;;;;11.86;72.06;98508.88;641032;224;24783;-79
2021/01/21 09:12:13;;;;;;;0.70;0.60;;;;;;;11.87;72.34;98516.20;639987;220;24827;-79
2021/01/21 09:14:42;;;;;;;1.10;0.70;;;;;;;11.97;71.91;98516.64;626330;224;24778;-82
2021/01/21 09:17:14;;;;;;;0.60;0.60;;;;;;;11.93;73.14;98527.63;640614;223;24783;-80
2021/01/21 09:19:46;;;;;;;0.60;0.60;;;;;;;11.95;74.29;98533.44;639097;224;24802;-81
2021/01/21 09:22:15;;;;;;;0.90;0.90;;;;;;;11.83;75.14;98554.86;636438;220;24778;-81
2021/01/21 09:24:55;;;;;;;0.80;0.80;;;;;;;11.84;75.31;98554.36;639611;223;24855;-80
2021/01/21 09:27:28;;;;;;;1.57;0.90;;;;;;;11.69;76.02;98570.09;638568;224;25902;-79
2021/01/21 09:30:00;;;;;;;2.97;0.80;;;;;;;11.54;77.05;98587.14;626086;229;24836;-80
2021/01/21 09:32:38;;;;;;;1.50;0.80;;;;;;;11.44;79.02;98609.30;637059;222;24766;-81
2021/01/21 09:35:07;;;;;;;5.87;0.80;;;;;;;11.21;80.48;98610.83;621736;229;23822;-83
2021/01/21 09:37:35;;;;;;;1.10;0.97;;;;;;;10.94;81.77;98620.20;625945;227;24818;-80
2021/01/21 09:40:04;;;;;;;1.00;0.87;;;;;;;10.85;83.74;98630.45;627194;228;24817;-81
2021/01/21 09:42:33;;;;;;;4.20;1.43;;;;;;;10.81;84.29;98632.59;625985;225;24824;-82
2021/01/21 09:45:01;;;;;;;1.63;1.40;;;;;;;10.78;84.89;98643.86;627219;228;24825;-81
2021/01/21 09:47:29;;;;;;;2.57;1.10;;;;;;;10.67;85.52;98645.95;626045;229;24825;-79
2021/01/21 09:49:59;;;;;;;2.60;1.10;;;;;;;10.55;86.69;98651.31;626691;227;24919;-79
2021/01/21 09:52:28;;;;;;;1.00;0.90;;;;;;;10.53;86.78;98641.60;627367;225;25923;-79
2021/01/21 09:54:56;;;;;;;3.53;0.90;;;;;;;10.59;87.46;98651.28;626465;228;24842;-79
2021/01/21 09:57:25;;;;;;;1.20;0.80;;;;;;;10.61;87.76;98639.40;630843;225;32511;-78
2021/01/21 09:59:55;;;;;;;1.60;0.90;;;;;;;10.69;88.06;98649.66;619515;227;32644;-78
2021/01/21 10:02:23;;;;;;;0.93;0.80;;;;;;;10.66;86.56;98652.64;621217;225;32667;-81
2021/01/21 10:04:53;;;;;;;1.03;0.90;;;;;;;10.74;88.24;98651.73;626182;228;24841;-80
2021/01/21 10:07:21;;;;;;;1.27;0.80;;;;;;;10.85;87.56;98645.55;629534;225;24818;-79
2021/01/21 10:09:49;;;;;;;0.80;0.80;;;;;;;10.76;88.22;98647.15;640131;223;24786;-79
2021/01/21 10:12:19;;;;;;;1.13;0.77;;;;;;;10.76;88.16;98647.15;635158;222;24827;-83
2021/01/21 10:14:51;;;;;;;0.70;0.70;;;;;;;10.63;88.34;98634.32;637154;222;24744;-79
2021/01/21 10:17:23;;;;;;;0.90;0.70;;;;;;;10.58;88.13;98626.77;625737;226;25297;-80
2021/01/21 10:19:57;;;;;;;1.25;0.70;;;;;;;10.64;87.14;98620.33;632488;224;32815;-81
2021/01/21 10:22:25;;;;;;;2.70;0.90;;;;;;;10.80;86.65;98611.97;629929;224;32815;-80
2021/01/21 10:24:53;;;;;;;1.10;1.00;;;;;;;10.83;85.31;98611.59;637009;225;22723;-79
2021/01/21 10:27:26;;;;;;;1.03;0.93;;;;;;;10.73;85.58;98607.22;637553;223;24763;-79
2021/01/21 10:29:52;;;;;;;1.20;0.90;;;;;;;10.81;84.86;98620.08;638717;224;24824;-79
2021/01/21 10:32:20;;;;;;;1.93;1.30;;;;;;;10.82;84.16;98618.59;624740;226;24826;-79
2021/01/21 10:34:48;;;;;;;1.73;0.93;;;;;;;10.80;83.90;98609.38;626955;228;24927;-79
2021/01/21 10:37:16;;;;;;;2.37;1.03;;;;;;;10.88;84.20;98605.36;636825;225;24786;-79
2021/01/21 10:39:44;;;;;;;1.20;0.80;;;;;;;10.91;82.92;98601.08;622501;226;29147;-78
2021/01/21 10:42:17;;;;;;;0.80;0.80;;;;;;;10.89;82.83;98609.56;637359;225;24823;-81
2021/01/21 10:44:46;;;;;;;1.20;0.97;;;;;;;10.98;82.79;98618.86;640856;224;24843;-78
2021/01/21 10:47:14;;;;;;;4.50;1.00;;;;;;;11.04;83.24;98614.20;622276;227;24908;-80
2021/01/21 10:49:42;;;;;;;1.13;0.90;;;;;;;10.96;83.55;98613.02;638722;223;23772;-80
2021/01/21 10:52:11;;;;;;;0.93;0.83;;;;;;;11.02;83.36;98618.78;642458;220;24801;-80
2021/01/21 10:54:39;;;;;;;2.10;1.00;;;;;;;11.19;83.48;98631.83;626174;229;24883;-79
2021/01/21 10:57:07;;;;;;;5.60;1.10;;;;;;;11.24;83.15;98633.86;628543;228;24861;-80
2021/01/21 10:59:35;;;;;;;1.50;1.10;;;;;;;11.13;82.62;98642.20;629438;227;24856;-79
2021/01/21 11:02:03;;;;;;;4.30;0.90;;;;;;;11.06;82.86;98643.42;626748;227;24887;-82
2021/01/21 11:04:31;;;;;;;1.77;0.93;;;;;;;10.99;84.45;98668.09;637019;224;29038;-81
2021/01/21 11:07:03;;;;;;;3.17;0.90;;;;;;;10.86;84.64;98672.36;638210;224;24217;-81
2021/01/21 11:09:35;;;;;;;4.40;1.03;;;;;;;10.77;86.24;98677.36;633817;225;24844;-79
2021/01/21 11:12:05;;;;;;;1.00;1.00;;;;;;;10.62;87.40;98686.01;636776;222;25108;-82
2021/01/21 11:14:35;;;;;;;2.10;0.80;;;;;;;10.51;89.27;98686.47;620453;229;32648;-82
2021/01/21 11:17:02;;;;;;;2.97;0.97;;;;;;;10.34;91.29;98697.57;627779;229;24904;-82
2021/01/21 11:19:34;;;;;;;1.40;1.30;;;;;;;10.06;91.92;98716.86;625431;228;29069;-81
2021/01/21 11:22:02;;;;;;;1.80;1.10;;;;;;;9.80;94.91;98723.77;639128;221;26978;-79
2021/01/21 11:24:30;;;;;;;1.27;1.17;;;;;;;9.54;96.06;98733.73;638382;224;23820;-80
2021/01/21 11:26:58;;;;;;;2.97;1.00;;;;;;;9.30;97.63;98726.16;625667;229;28095;-80
2021/01/21 11:29:30;;;;;;;1.87;1.37;;;;;;;9.18;100.00;98733.53;641014;223;25999;-81
2021/01/21 11:31:59;;;;;;;2.10;1.37;;;;;;;9.10;100.00;98729.69;633431;223;32825;-79
2021/01/21 11:34:27;;;;;;;3.40;1.70;;;;;;;9.05;100.00;98725.52;640641;224;24862;-81
2021/01/21 11:36:55;;;;;;;2.83;1.60;;;;;;;9.04;100.00;98727.80;638984;224;28062;-80
2021/01/21 11:39:23;;;;;;;2.93;1.33;;;;;;;9.09;100.00;98729.38;639031;224;23815;-83
2021/01/21 11:41:51;;;;;;;1.63;1.47;;;;;;;9.23;100.00;98716.95;625135;226;24853;-81
2021/01/21 11:44:21;;;;;;;1.50;1.20;;;;;;;9.16;100.00;98727.72;619903;229;32737;-80
2021/01/21 11:46:49;;;;;;;2.92;1.20;;;;;;;9.23;100.00;98728.14;632965;219;32538;-82
2021/01/21 11:49:25;;;;;;;1.15;1.00;;;;;;;9.34;100.00;98729.52;620478;229;43404;-81
2021/01/21 11:51:55;;;;;;;1.20;1.10;;;;;;;9.27;100.00;98716.91;638136;221;26175;-81